Madera, Pennsylvania
Current Conditions -  °F | °C
As of 1:54 PM on Friday 31 Oct 2014 (Local Time) from KFIG Reporting Station
Overcast Overcast  
Wind Chill: 45°   Ceiling: 4200
Heat Index: 45°   Visibility: 10mi
Dew Point: 37°   Wind: 3mph
Humidity: 74%   Direction: 30°NNE
Pressure: 29.88"   Gusts: NA
Location:  40.83°N, 78.43°W
Report Text: KFIG 311754Z AUTO 03003KT 10SM BKN042 OVC050 07/03 A2988 RMK AO2 SLP126 T00720028 10072 20039 58020
Loading
Personal Weather Stations






























Interactive Weather Map
Tropical Storm Tracking
New forecast layout! Learn more

10-Day Weather Forecast

Advertisements
Track Severe Weather on mobile